Time;durP1;ratioP1;P1;durP2;ratioP2;P2;SDS_P1;SDS_P2;PMS_P1;PMS_P2;Temp;Humidity;BMP_temperature;BMP_pressure;BME280_temperature;BME280_humidity;BME280_pressure;Samples;Min_cycle;Max_cycle;Signal;HPM_P1;HPM_P2
2023/11/05 00:00:43;;;;;;;2.07;0.70;;;;;;;12.11;84.99;94800.63;4183558;28;21715;-85
2023/11/05 00:02:46;;;;;;;1.83;0.60;;;;;;;12.16;84.11;94803.44;4204070;28;20647;-86
2023/11/05 00:04:49;;;;;;;1.50;0.60;;;;;;;12.18;85.09;94811.09;4169961;28;20662;-86
2023/11/05 00:06:54;;;;;;;1.43;0.50;;;;;;;12.18;84.53;94811.94;4190491;28;20691;-86
2023/11/05 00:08:57;;;;;;;1.70;0.60;;;;;;;12.17;85.24;94812.13;4170711;28;20675;-85
2023/11/05 00:11:01;;;;;;;1.10;0.53;;;;;;;12.18;85.18;94811.94;4168143;28;20670;-86
2023/11/05 00:13:03;;;;;;;1.10;0.50;;;;;;;12.22;84.91;94804.50;4166281;28;20661;-86
2023/11/05 00:15:07;;;;;;;1.20;0.60;;;;;;;12.20;84.35;94807.31;4199398;28;20624;-86
2023/11/05 00:17:10;;;;;;;3.60;0.70;;;;;;;12.19;83.38;94803.06;4206897;28;21203;-86
2023/11/05 00:19:14;;;;;;;1.20;0.43;;;;;;;12.17;83.65;94802.47;4181853;28;20932;-85
2023/11/05 00:21:17;;;;;;;1.30;0.73;;;;;;;12.14;84.20;94802.84;4171833;28;20614;-86
2023/11/05 00:23:23;;;;;;;1.20;0.70;;;;;;;12.06;82.87;94797.00;4185562;28;20635;-86
2023/11/05 00:25:26;;;;;;;1.63;0.60;;;;;;;12.05;83.97;94795.38;4188254;28;20657;-86
2023/11/05 00:27:29;;;;;;;1.40;0.83;;;;;;;12.05;84.95;94793.56;4166322;28;20621;-85
2023/11/05 00:29:32;;;;;;;1.10;0.40;;;;;;;12.03;82.62;94777.28;4184870;28;20710;-86
2023/11/05 00:31:35;;;;;;;1.57;0.70;;;;;;;12.00;82.39;94777.69;4170931;28;21086;-86
2023/11/05 00:33:39;;;;;;;1.23;0.60;;;;;;;12.00;84.99;94764.63;4171078;28;20621;-86
2023/11/05 00:35:44;;;;;;;1.30;0.70;;;;;;;11.98;84.21;94769.25;4188791;28;20631;-86
2023/11/05 00:37:46;;;;;;;1.10;0.60;;;;;;;11.98;82.98;94764.03;4179284;28;20605;-86
2023/11/05 00:39:51;;;;;;;1.10;0.67;;;;;;;11.98;83.10;94752.75;4188979;28;20658;-86
2023/11/05 00:41:54;;;;;;;1.10;0.60;;;;;;;11.88;84.41;94755.72;4184525;28;21549;-86
2023/11/05 00:43:57;;;;;;;1.97;0.53;;;;;;;11.86;83.76;94744.69;4164406;28;21166;-86
2023/11/05 00:46:00;;;;;;;1.63;0.57;;;;;;;11.87;82.90;94725.38;4200701;28;20649;-86
2023/11/05 00:48:04;;;;;;;1.23;0.50;;;;;;;11.84;83.71;94720.56;4186033;28;21230;-87
2023/11/05 00:50:08;;;;;;;0.90;0.47;;;;;;;11.81;83.83;94726.16;4169746;28;20687;-86
2023/11/05 00:52:11;;;;;;;1.60;0.70;;;;;;;11.83;83.76;94726.78;4181240;28;20707;-86
2023/11/05 00:54:13;;;;;;;1.20;0.60;;;;;;;11.84;82.46;94722.38;4186464;28;21025;-87
2023/11/05 00:56:18;;;;;;;1.10;0.50;;;;;;;11.86;83.04;94705.53;4179970;28;20621;-86
2023/11/05 00:58:21;;;;;;;1.30;0.60;;;;;;;11.84;83.77;94712.72;4171544;28;21046;-86
2023/11/05 01:00:24;;;;;;;1.57;0.50;;;;;;;11.84;82.71;94709.31;4202173;28;21222;-86
2023/11/05 01:02:30;;;;;;;3.10;0.73;;;;;;;11.86;82.63;94697.69;4184344;28;20647;-86
2023/11/05 01:04:33;;;;;;;0.90;0.50;;;;;;;11.83;83.22;94697.25;4180884;28;20644;-86
2023/11/05 01:06:37;;;;;;;1.63;0.50;;;;;;;11.82;82.38;94695.66;4181300;28;20648;-86
2023/11/05 01:08:40;;;;;;;1.33;0.63;;;;;;;11.83;83.35;94681.59;4186012;28;20619;-86
2023/11/05 01:10:44;;;;;;;1.20;0.50;;;;;;;11.84;83.05;94688.44;4188543;28;20631;-86
2023/11/05 01:12:48;;;;;;;1.00;0.50;;;;;;;11.77;82.70;94682.38;4187730;28;20620;-86
2023/11/05 01:14:51;;;;;;;1.83;1.20;;;;;;;11.78;82.41;94683.97;4188953;28;20620;-86
2023/11/05 01:16:54;;;;;;;1.27;0.70;;;;;;;11.77;83.10;94677.13;4194100;28;20618;-85
2023/11/05 01:18:58;;;;;;;2.50;0.60;;;;;;;11.76;82.55;94665.91;4179849;28;20642;-86
2023/11/05 01:21:01;;;;;;;1.10;0.50;;;;;;;11.78;82.63;94668.31;4176549;28;21089;-86
2023/11/05 01:23:04;;;;;;;0.90;0.50;;;;;;;11.82;83.90;94682.59;4178551;28;21181;-86
2023/11/05 01:25:08;;;;;;;1.57;0.60;;;;;;;11.80;82.02;94671.53;4212154;28;20602;-86
2023/11/05 01:27:11;;;;;;;2.00;0.70;;;;;;;11.75;83.93;94666.91;4191299;28;20632;-86
2023/11/05 01:29:16;;;;;;;1.47;0.67;;;;;;;11.72;83.01;94661.28;4174862;28;20727;-86
2023/11/05 01:31:19;;;;;;;1.57;0.60;;;;;;;11.72;83.26;94658.66;4173710;28;20698;-86
2023/11/05 01:33:23;;;;;;;1.93;0.60;;;;;;;11.75;82.47;94655.66;4176113;28;20626;-86
2023/11/05 01:35:26;;;;;;;1.20;0.50;;;;;;;11.75;83.86;94660.88;4205724;28;20626;-86
2023/11/05 01:37:29;;;;;;;0.90;0.30;;;;;;;11.72;82.02;94644.81;4178126;28;20674;-85
2023/11/05 01:39:32;;;;;;;1.13;0.53;;;;;;;11.70;83.52;94639.78;4177057;28;20633;-86
2023/11/05 01:41:35;;;;;;;2.20;0.50;;;;;;;11.62;84.70;94633.91;4191428;28;21084;-86
2023/11/05 01:43:39;;;;;;;1.70;0.50;;;;;;;11.61;82.59;94624.50;4190903;28;20600;-85
2023/11/05 01:45:42;;;;;;;2.30;0.60;;;;;;;11.62;82.33;94616.47;4210870;28;20665;-86
2023/11/05 01:47:46;;;;;;;1.10;0.63;;;;;;;11.64;82.98;94613.66;4207980;28;20647;-86
2023/11/05 01:49:50;;;;;;;6.73;0.70;;;;;;;11.70;83.52;94618.91;4184747;28;20616;-86
2023/11/05 01:51:54;;;;;;;1.20;0.33;;;;;;;11.71;83.17;94614.47;4193095;28;20684;-86
2023/11/05 01:53:58;;;;;;;1.03;0.40;;;;;;;11.76;82.56;94616.31;4187814;28;20627;-86
2023/11/05 01:56:04;;;;;;;1.23;0.53;;;;;;;11.83;83.09;94604.09;4171639;28;20620;-86
2023/11/05 01:58:07;;;;;;;1.20;0.40;;;;;;;11.84;83.69;94599.66;4198990;28;21172;-85
2023/11/05 02:00:12;;;;;;;1.93;0.50;;;;;;;11.89;82.26;94600.69;4176867;28;20631;-86
2023/11/05 02:02:17;;;;;;;1.83;0.50;;;;;;;11.93;82.24;94591.44;4193733;28;20956;-86
2023/11/05 02:04:22;;;;;;;1.93;0.60;;;;;;;11.99;81.30;94584.63;4193649;28;21273;-86
2023/11/05 02:06:26;;;;;;;1.37;0.50;;;;;;;12.03;82.91;94593.69;4194252;28;20687;-86
2023/11/05 02:08:30;;;;;;;4.10;1.43;;;;;;;12.01;82.61;94591.25;4163778;28;20771;-86
2023/11/05 02:10:33;;;;;;;1.67;0.87;;;;;;;12.01;82.43;94590.44;4164937;28;20637;-86
2023/11/05 02:12:38;;;;;;;0.80;0.40;;;;;;;12.00;82.69;94589.66;4206438;28;20607;-86
2023/11/05 02:14:40;;;;;;;1.50;0.53;;;;;;;12.04;82.06;94590.03;4178388;28;21030;-85
2023/11/05 02:16:44;;;;;;;0.90;0.40;;;;;;;12.03;81.36;94585.84;4192904;28;20627;-86
2023/11/05 02:18:50;;;;;;;1.93;0.70;;;;;;;12.06;82.08;94588.06;4192190;28;20623;-86
2023/11/05 02:20:55;;;;;;;1.80;0.50;;;;;;;12.08;79.84;94578.22;4171567;28;21197;-86
2023/11/05 02:23:01;;;;;;;0.90;0.40;;;;;;;12.14;82.01;94574.78;4178810;28;20621;-85
2023/11/05 02:25:08;;;;;;;2.80;0.80;;;;;;;12.13;80.93;94568.75;4184722;28;20624;-86
2023/11/05 02:27:12;;;;;;;1.10;0.40;;;;;;;12.18;81.38;94573.38;4191581;28;20659;-86
2023/11/05 02:29:16;;;;;;;2.20;0.50;;;;;;;12.17;79.48;94556.09;4179383;28;21043;-86
2023/11/05 02:31:20;;;;;;;1.10;0.50;;;;;;;12.22;80.33;94553.69;4189585;28;20724;-86
2023/11/05 02:33:23;;;;;;;1.80;1.13;;;;;;;12.24;80.22;94555.91;4189929;28;21253;-86
2023/11/05 02:35:27;;;;;;;1.87;0.60;;;;;;;12.27;80.75;94554.72;4186972;28;20659;-86
2023/11/05 02:37:31;;;;;;;1.60;0.53;;;;;;;12.29;79.79;94542.22;4176177;28;20609;-86
2023/11/05 02:39:34;;;;;;;1.50;0.50;;;;;;;12.36;79.54;94545.66;4189409;28;20661;-85
2023/11/05 02:41:38;;;;;;;3.00;0.50;;;;;;;12.41;79.21;94538.81;4184931;28;20631;-86
2023/11/05 02:43:42;;;;;;;2.20;0.50;;;;;;;12.42;79.58;94534.41;4183817;28;20617;-86
2023/11/05 02:45:46;;;;;;;4.10;0.57;;;;;;;12.46;78.97;94530.34;4189020;28;21072;-87
2023/11/05 02:47:50;;;;;;;2.70;0.70;;;;;;;12.49;77.27;94522.91;4191330;28;20663;-86
2023/11/05 02:49:54;;;;;;;1.77;0.53;;;;;;;12.52;78.41;94517.25;4175992;28;20656;-85
2023/11/05 02:51:58;;;;;;;1.93;0.63;;;;;;;12.59;78.72;94527.72;4189562;28;20635;-86
2023/11/05 02:54:02;;;;;;;1.97;0.53;;;;;;;12.61;78.16;94523.09;4203845;28;20631;-86
2023/11/05 02:56:06;;;;;;;3.43;0.60;;;;;;;12.64;78.42;94518.25;4187550;28;21092;-86
2023/11/05 02:58:13;;;;;;;1.87;0.60;;;;;;;12.67;77.02;94507.38;4181777;28;20625;-86
2023/11/05 03:00:17;;;;;;;3.50;0.67;;;;;;;12.69;76.24;94510.63;4186696;28;20621;-87
2023/11/05 03:02:20;;;;;;;2.77;0.73;;;;;;;12.75;75.79;94507.19;4181859;28;20719;-86
2023/11/05 03:04:24;;;;;;;3.67;0.53;;;;;;;12.76;76.77;94499.13;4189395;28;20623;-86
2023/11/05 03:06:28;;;;;;;3.53;0.70;;;;;;;12.81;75.98;94501.94;4190011;28;20655;-86
2023/11/05 03:08:33;;;;;;;1.30;0.50;;;;;;;12.84;75.68;94501.56;4193675;28;21197;-86
2023/11/05 03:10:37;;;;;;;1.87;0.60;;;;;;;12.85;74.40;94495.31;4174306;28;20697;-85
2023/11/05 03:12:40;;;;;;;1.37;0.50;;;;;;;12.88;75.63;94492.25;4191747;28;20726;-86
2023/11/05 03:14:45;;;;;;;2.63;0.60;;;;;;;12.90;75.05;94487.66;4191026;28;20629;-86
2023/11/05 03:16:49;;;;;;;2.53;0.63;;;;;;;12.87;75.63;94493.28;4173092;28;20616;-86
2023/11/05 03:18:53;;;;;;;2.50;0.70;;;;;;;12.91;74.62;94483.22;4207946;28;20626;-86
2023/11/05 03:20:57;;;;;;;1.50;0.60;;;;;;;12.94;74.70;94480.19;4188097;28;20622;-85
2023/11/05 03:23:00;;;;;;;1.20;0.60;;;;;;;12.96;75.45;94478.16;4188436;28;20639;-86
2023/11/05 03:25:05;;;;;;;2.83;0.67;;;;;;;12.91;74.52;94467.53;4186891;28;20630;-86
2023/11/05 03:27:08;;;;;;;2.13;0.60;;;;;;;12.90;74.63;94464.13;4189924;28;20756;-86
2023/11/05 03:29:12;;;;;;;1.57;0.43;;;;;;;12.95;74.47;94479.19;4205214;28;20610;-86
2023/11/05 03:31:16;;;;;;;3.17;0.83;;;;;;;12.96;72.85;94478.97;4186685;28;20674;-86
2023/11/05 03:33:20;;;;;;;2.20;0.70;;;;;;;13.00;73.40;94463.66;4172477;28;21033;-86
2023/11/05 03:35:23;;;;;;;4.07;0.70;;;;;;;13.02;74.09;94466.88;4189380;28;20640;-86
2023/11/05 03:37:27;;;;;;;3.50;0.70;;;;;;;13.04;73.92;94468.28;4182100;28;20698;-86
2023/11/05 03:39:31;;;;;;;1.50;0.50;;;;;;;13.06;73.61;94468.84;4204492;28;20672;-86
2023/11/05 03:41:34;;;;;;;2.90;1.10;;;;;;;13.06;73.86;94468.84;4176691;28;21285;-86
2023/11/05 03:43:37;;;;;;;1.80;0.60;;;;;;;13.06;73.38;94473.28;4193163;28;21224;-86
2023/11/05 03:45:41;;;;;;;2.53;0.80;;;;;;;13.03;73.42;94469.28;4186883;28;20682;-86
2023/11/05 03:47:48;;;;;;;4.23;1.30;;;;;;;13.04;73.08;94447.34;4192098;28;21339;-85
2023/11/05 03:49:52;;;;;;;2.33;0.80;;;;;;;13.06;72.46;94454.97;4174410;28;20671;-86
2023/11/05 03:51:58;;;;;;;4.50;0.63;;;;;;;13.03;72.08;94456.19;4175377;28;20661;-86
2023/11/05 03:54:00;;;;;;;2.00;0.50;;;;;;;13.03;72.66;94461.41;4177475;28;21263;-86
2023/11/05 03:56:04;;;;;;;1.73;0.63;;;;;;;13.07;71.92;94453.97;4181801;28;20624;-86
2023/11/05 03:58:09;;;;;;;3.40;0.80;;;;;;;13.08;72.69;94456.38;4188796;28;20651;-86
2023/11/05 04:00:13;;;;;;;3.90;1.03;;;;;;;13.09;72.26;94457.97;4187335;28;20640;-86
2023/11/05 04:02:16;;;;;;;1.90;0.50;;;;;;;13.09;72.99;94452.75;4169561;28;20629;-86
2023/11/05 04:04:21;;;;;;;1.97;1.00;;;;;;;13.10;72.66;94472.66;4174684;28;20621;-85
2023/11/05 04:06:24;;;;;;;2.70;0.60;;;;;;;13.12;72.77;94462.00;4187104;28;21253;-86
2023/11/05 04:08:27;;;;;;;1.60;0.60;;;;;;;13.15;72.85;94461.59;4200931;28;20708;-86
2023/11/05 04:10:30;;;;;;;2.20;0.90;;;;;;;13.14;72.69;94460.78;4187173;28;20725;-86
2023/11/05 04:12:35;;;;;;;3.90;0.70;;;;;;;13.15;72.78;94466.81;4190054;28;20624;-86
2023/11/05 04:14:38;;;;;;;4.37;0.80;;;;;;;13.17;71.71;94454.31;4177731;28;20653;-86
2023/11/05 04:16:42;;;;;;;1.80;0.67;;;;;;;13.17;72.89;94455.13;4188797;28;20631;-86
2023/11/05 04:18:44;;;;;;;2.93;0.80;;;;;;;13.18;72.94;94450.69;4170293;28;20621;-86
2023/11/05 04:20:49;;;;;;;1.50;0.63;;;;;;;13.15;71.85;94440.66;4183829;28;20669;-86
2023/11/05 04:22:52;;;;;;;4.67;0.77;;;;;;;13.18;72.95;94442.84;4203962;28;21253;-86
2023/11/05 04:24:55;;;;;;;3.13;0.90;;;;;;;13.17;72.40;94443.84;4176227;28;20639;-86
2023/11/05 04:26:58;;;;;;;2.23;0.60;;;;;;;13.16;72.10;94440.44;4191119;28;20627;-86
2023/11/05 04:29:02;;;;;;;3.33;0.80;;;;;;;13.17;71.38;94434.22;4173711;28;20679;-86
2023/11/05 04:31:05;;;;;;;2.50;0.60;;;;;;;13.14;71.68;94434.63;4185479;28;21264;-86
2023/11/05 04:33:08;;;;;;;1.80;0.70;;;;;;;13.18;72.25;94450.69;4173720;28;20680;-86
2023/11/05 04:35:11;;;;;;;2.50;0.60;;;;;;;13.20;72.44;94452.09;4175834;28;21037;-86
2023/11/05 04:37:16;;;;;;;3.40;0.63;;;;;;;13.20;73.04;94455.50;4187494;28;20666;-86
2023/11/05 04:39:19;;;;;;;3.93;0.50;;;;;;;13.14;71.68;94460.78;4183989;28;20820;-86
2023/11/05 04:41:23;;;;;;;2.33;0.50;;;;;;;13.15;72.83;94445.88;4184719;28;20637;-86
2023/11/05 04:43:26;;;;;;;2.17;0.90;;;;;;;13.19;71.98;94459.13;4191029;28;20659;-86
2023/11/05 04:45:30;;;;;;;3.47;0.80;;;;;;;13.19;72.48;94451.28;4170961;28;21032;-86
2023/11/05 04:47:33;;;;;;;2.10;0.70;;;;;;;13.23;71.81;94454.31;4184476;28;20766;-86
2023/11/05 04:49:37;;;;;;;6.57;1.87;;;;;;;13.26;72.08;94459.91;4186515;28;20628;-86
2023/11/05 04:51:41;;;;;;;3.20;0.97;;;;;;;13.26;71.91;94459.91;4189209;28;20617;-86
2023/11/05 04:53:46;;;;;;;3.20;0.57;;;;;;;13.19;73.09;94459.13;4188478;28;21200;-86
2023/11/05 04:55:49;;;;;;;1.93;0.60;;;;;;;13.22;72.71;94458.72;4177021;28;20992;-87
2023/11/05 04:57:51;;;;;;;1.80;0.73;;;;;;;13.26;72.42;94453.84;4188840;28;20636;-86
2023/11/05 04:59:54;;;;;;;1.70;0.50;;;;;;;13.28;72.21;94457.88;4190075;28;21214;-86
2023/11/05 05:01:58;;;;;;;1.57;0.57;;;;;;;13.32;73.06;94459.06;4173556;28;20739;-86
2023/11/05 05:04:02;;;;;;;5.03;1.00;;;;;;;13.33;72.90;94470.34;4186526;28;21163;-86
2023/11/05 05:06:06;;;;;;;1.90;0.70;;;;;;;13.28;73.30;94455.25;4195164;28;21191;-87
2023/11/05 05:08:09;;;;;;;3.13;1.40;;;;;;;13.31;73.36;94456.66;4173585;28;20697;-86
2023/11/05 05:10:15;;;;;;;4.43;0.67;;;;;;;13.29;73.04;94454.25;4174391;28;20625;-86
2023/11/05 05:12:19;;;;;;;2.80;1.57;;;;;;;13.29;73.59;94454.25;4195106;28;20651;-86
2023/11/05 05:14:22;;;;;;;1.70;0.60;;;;;;;13.34;72.25;94456.25;4204651;28;20628;-87
2023/11/05 05:16:28;;;;;;;5.07;0.60;;;;;;;13.32;73.96;94458.25;4190589;28;20843;-87
2023/11/05 05:18:32;;;;;;;1.97;0.43;;;;;;;13.34;72.97;94467.50;4190869;28;20611;-86
2023/11/05 05:20:35;;;;;;;1.87;0.70;;;;;;;13.31;72.31;94464.50;4191766;28;20622;-87
2023/11/05 05:22:38;;;;;;;1.43;0.60;;;;;;;13.34;73.26;94461.47;4192150;28;20667;-86
2023/11/05 05:24:42;;;;;;;1.83;0.50;;;;;;;13.38;73.58;94452.19;4192332;28;20960;-86
2023/11/05 05:26:46;;;;;;;1.90;0.70;;;;;;;13.35;73.46;94470.91;4207620;28;20638;-87
2023/11/05 05:28:50;;;;;;;2.80;0.50;;;;;;;13.32;73.53;94461.69;4205074;28;20677;-86
2023/11/05 05:30:53;;;;;;;2.80;0.60;;;;;;;13.34;73.66;94477.19;4195091;28;20687;-86
2023/11/05 05:32:56;;;;;;;1.20;0.50;;;;;;;13.28;73.76;94470.16;4207080;28;21064;-86
2023/11/05 05:35:00;;;;;;;5.80;0.73;;;;;;;13.24;73.70;94471.59;4184367;28;20609;-86
2023/11/05 05:37:03;;;;;;;3.10;0.60;;;;;;;13.20;73.70;94476.44;4190898;28;20623;-87
2023/11/05 05:39:07;;;;;;;4.60;0.90;;;;;;;13.14;74.07;94486.94;4178702;28;20624;-87
2023/11/05 05:41:10;;;;;;;3.07;0.70;;;;;;;13.15;74.62;94477.28;4191369;28;20635;-86
2023/11/05 05:43:15;;;;;;;2.90;0.90;;;;;;;13.11;74.80;94481.31;4189599;28;20625;-86
2023/11/05 05:45:19;;;;;;;2.20;0.83;;;;;;;13.08;75.24;94485.16;4205177;28;21050;-86
2023/11/05 05:47:22;;;;;;;2.60;0.70;;;;;;;13.09;75.48;94483.34;4174154;28;20752;-86
2023/11/05 05:49:24;;;;;;;1.73;0.60;;;;;;;13.05;75.33;94484.75;4178120;28;21288;-86
2023/11/05 05:51:27;;;;;;;4.53;0.60;;;;;;;13.03;75.12;94479.72;4184120;28;20623;-87
2023/11/05 05:53:32;;;;;;;2.30;0.70;;;;;;;12.95;75.04;94487.81;4188553;28;21189;-86
2023/11/05 05:55:35;;;;;;;2.37;0.60;;;;;;;12.99;75.02;94486.41;4184600;28;20686;-82
2023/11/05 05:57:39;;;;;;;2.10;1.03;;;;;;;12.99;76.82;94485.59;4177287;28;20616;-86
2023/11/05 05:59:43;;;;;;;2.20;0.60;;;;;;;12.96;76.57;94502.53;4192149;28;20678;-86
2023/11/05 06:01:46;;;;;;;3.13;1.00;;;;;;;12.97;75.22;94483.19;4185489;28;20986;-86
2023/11/05 06:03:49;;;;;;;1.03;0.40;;;;;;;12.99;77.01;94491.63;4177435;28;20636;-86
2023/11/05 06:05:53;;;;;;;1.90;0.60;;;;;;;13.00;75.05;94487.19;4203527;28;20623;-86
2023/11/05 06:07:56;;;;;;;1.63;0.50;;;;;;;13.00;76.81;94506.31;4175280;28;20731;-86
2023/11/05 06:10:01;;;;;;;1.70;0.60;;;;;;;13.00;76.20;94498.47;4193131;28;20632;-86
2023/11/05 06:12:05;;;;;;;5.17;0.83;;;;;;;12.98;76.09;94502.31;4178245;28;20703;-86
2023/11/05 06:14:08;;;;;;;2.17;0.60;;;;;;;12.93;76.80;94489.03;4172684;28;20625;-86
2023/11/05 06:16:13;;;;;;;1.43;0.53;;;;;;;12.95;77.30;94493.06;4173415;28;20726;-86
2023/11/05 06:18:16;;;;;;;1.90;0.70;;;;;;;12.94;76.18;94486.22;4194891;28;21081;-86
2023/11/05 06:20:19;;;;;;;2.73;0.70;;;;;;;12.95;76.41;94487.81;4190984;28;20647;-86
2023/11/05 06:22:23;;;;;;;1.23;0.50;;;;;;;12.95;77.00;94479.19;4191829;28;20635;-87
2023/11/05 06:24:25;;;;;;;2.90;0.67;;;;;;;12.92;76.95;94485.63;4188781;28;20643;-86
2023/11/05 06:26:28;;;;;;;1.73;0.50;;;;;;;12.96;77.65;94491.22;4180107;28;20628;-87
2023/11/05 06:28:31;;;;;;;1.83;0.70;;;;;;;12.98;77.01;94492.63;4209368;28;20644;-86
2023/11/05 06:30:35;;;;;;;3.73;0.60;;;;;;;12.98;77.16;94504.94;4188017;28;20737;-86
2023/11/05 06:32:39;;;;;;;1.87;0.90;;;;;;;12.99;76.33;94499.50;4193565;28;20628;-86
2023/11/05 06:34:43;;;;;;;1.77;0.50;;;;;;;13.03;77.18;94510.34;4192686;28;20689;-86
2023/11/05 06:36:56;;;;;;;3.90;0.70;;;;;;;13.02;76.44;94508.72;4172530;28;21263;-86
2023/11/05 06:38:59;;;;;;;2.40;0.77;;;;;;;13.00;77.93;94508.91;4176246;28;21072;-86
2023/11/05 06:41:02;;;;;;;1.30;0.50;;;;;;;13.02;77.47;94503.47;4209292;28;20623;-86
2023/11/05 06:43:06;;;;;;;2.27;0.60;;;;;;;12.97;78.35;94506.72;4175860;28;20760;-86
2023/11/05 06:45:08;;;;;;;1.50;0.50;;;;;;;13.04;76.87;94506.72;4175630;28;20632;-86
2023/11/05 06:47:12;;;;;;;1.10;0.50;;;;;;;13.03;78.02;94518.97;4199645;28;20628;-86
2023/11/05 06:49:16;;;;;;;1.63;0.50;;;;;;;13.02;76.62;94513.94;4177158;28;20703;-86
2023/11/05 06:51:20;;;;;;;1.60;0.40;;;;;;;13.06;77.77;94521.19;4190234;28;20628;-86
2023/11/05 06:53:23;;;;;;;1.23;0.53;;;;;;;13.10;78.26;94517.16;4192952;28;21244;-86
2023/11/05 06:55:28;;;;;;;2.27;0.60;;;;;;;13.22;78.37;94531.19;4189890;28;21358;-86
2023/11/05 06:57:34;;;;;;;2.20;0.60;;;;;;;13.25;77.49;94530.78;4193792;28;20635;-86
2023/11/05 06:59:37;;;;;;;1.20;0.50;;;;;;;13.32;77.55;94532.34;4208545;28;20615;-86
2023/11/05 07:01:40;;;;;;;1.00;0.40;;;;;;;13.31;77.13;94522.88;4190107;28;20670;-86
2023/11/05 07:03:44;;;;;;;1.50;0.50;;;;;;;13.32;76.97;94544.63;4184705;28;20668;-86
2023/11/05 07:05:48;;;;;;;1.87;0.83;;;;;;;13.30;78.46;94544.03;4187229;28;20742;-86
2023/11/05 07:07:53;;;;;;;1.20;0.50;;;;;;;13.26;78.11;94542.81;4180964;28;21004;-86
2023/11/05 07:09:56;;;;;;;1.27;0.50;;;;;;;13.27;78.87;94539.22;4182132;28;20646;-86
2023/11/05 07:12:00;;;;;;;1.13;0.50;;;;;;;13.25;78.57;94538.63;4184647;28;20605;-87
2023/11/05 07:14:03;;;;;;;2.60;0.60;;;;;;;13.20;78.50;94538.44;4175951;28;20620;-86
2023/11/05 07:16:07;;;;;;;1.53;0.87;;;;;;;13.19;78.82;94547.31;4165973;28;20630;-86
2023/11/05 07:18:11;;;;;;;1.10;0.43;;;;;;;13.19;78.19;94537.63;4186078;28;20623;-87
2023/11/05 07:20:14;;;;;;;1.20;0.40;;;;;;;13.21;78.56;94553.94;4172663;28;26468;-86
2023/11/05 07:22:19;;;;;;;1.60;0.50;;;;;;;13.22;77.63;94550.31;4193170;28;20639;-88
2023/11/05 07:24:24;;;;;;;3.43;0.80;;;;;;;13.24;78.41;94552.72;4176935;28;20621;-86
2023/11/05 07:26:31;;;;;;;1.40;0.50;;;;;;;13.19;79.38;94548.09;4173863;28;21835;-86
2023/11/05 07:28:34;;;;;;;0.97;0.40;;;;;;;13.22;78.40;94557.34;4199690;28;20633;-86
2023/11/05 07:30:37;;;;;;;1.30;0.60;;;;;;;13.20;78.90;94554.16;4184850;28;20710;-86
2023/11/05 07:32:40;;;;;;;1.00;0.50;;;;;;;13.14;78.78;94556.78;4188004;28;20681;-86
2023/11/05 07:34:43;;;;;;;1.83;0.47;;;;;;;13.07;79.11;94563.84;4190302;28;20634;-86
2023/11/05 07:36:47;;;;;;;2.53;0.57;;;;;;;13.04;79.77;94561.66;4191381;28;20658;-86
2023/11/05 07:38:51;;;;;;;1.00;0.40;;;;;;;12.97;80.23;94564.25;4170893;28;20628;-86
2023/11/05 07:40:55;;;;;;;1.40;0.40;;;;;;;12.92;80.25;94561.47;4174824;28;20628;-86
2023/11/05 07:42:58;;;;;;;1.53;0.50;;;;;;;12.95;81.82;94566.28;4188235;28;20608;-86
2023/11/05 07:45:05;;;;;;;1.43;0.50;;;;;;;12.92;81.48;94561.47;4171985;28;21193;-87
2023/11/05 07:47:08;;;;;;;2.33;0.40;;;;;;;12.95;81.88;94561.06;4177181;28;20628;-86
2023/11/05 07:49:12;;;;;;;1.97;0.40;;;;;;;13.05;82.91;94573.69;4188583;28;21223;-86
2023/11/05 07:51:17;;;;;;;2.60;0.57;;;;;;;13.09;81.99;94580.94;4199872;28;20631;-86
2023/11/05 07:53:21;;;;;;;1.73;0.50;;;;;;;13.32;82.68;94592.56;4181723;28;21011;-86
2023/11/05 07:55:25;;;;;;;1.23;0.40;;;;;;;13.55;81.33;94597.31;4189719;28;20650;-86
2023/11/05 07:57:27;;;;;;;1.10;0.40;;;;;;;13.36;80.48;94591.09;4174378;28;20651;-86
2023/11/05 07:59:31;;;;;;;0.90;0.40;;;;;;;13.31;81.87;94595.38;4174943;28;20725;-86
2023/11/05 08:01:34;;;;;;;1.47;0.40;;;;;;;13.25;81.25;94599.59;4202680;28;20688;-86
2023/11/05 08:03:40;;;;;;;1.40;0.47;;;;;;;13.24;82.29;94611.09;4173230;28;20676;-87
2023/11/05 08:05:43;;;;;;;1.40;0.70;;;;;;;13.23;81.35;94604.25;4189892;28;20635;-86
2023/11/05 08:07:46;;;;;;;1.67;0.50;;;;;;;13.25;81.36;94609.28;4174980;28;20625;-86
2023/11/05 08:09:51;;;;;;;1.10;0.50;;;;;;;13.26;81.29;94627.41;4192613;28;20644;-86
2023/11/05 08:11:56;;;;;;;1.50;0.50;;;;;;;13.26;81.36;94631.81;4193197;28;20615;-86
2023/11/05 08:14:00;;;;;;;0.80;0.40;;;;;;;13.25;82.12;94631.00;4186887;28;20703;-86
2023/11/05 08:16:04;;;;;;;1.67;0.60;;;;;;;13.23;82.60;94637.47;4185891;28;20715;-86
2023/11/05 08:18:07;;;;;;;1.47;0.63;;;;;;;13.09;81.35;94635.88;4191687;28;20608;-86
2023/11/05 08:20:14;;;;;;;1.13;0.40;;;;;;;13.15;82.69;94635.06;4187446;28;21374;-86
2023/11/05 08:22:18;;;;;;;3.20;0.70;;;;;;;13.20;82.13;94645.75;4173196;28;20644;-86
2023/11/05 08:24:23;;;;;;;0.87;0.30;;;;;;;13.23;83.49;94647.94;4205077;28;20649;-86
2023/11/05 08:26:26;;;;;;;1.63;0.60;;;;;;;13.25;82.37;94656.38;4169611;28;20694;-86
2023/11/05 08:28:32;;;;;;;1.10;0.40;;;;;;;13.24;82.29;94662.63;4210769;28;21170;-86
2023/11/05 08:30:36;;;;;;;2.67;0.70;;;;;;;13.23;82.25;94658.41;4209864;28;20766;-86
2023/11/05 08:32:40;;;;;;;1.10;0.50;;;;;;;13.20;82.21;94661.44;4177808;28;20727;-87
2023/11/05 08:34:44;;;;;;;1.20;0.50;;;;;;;13.18;82.65;94667.88;4190758;28;21277;-86
2023/11/05 08:36:46;;;;;;;1.30;0.40;;;;;;;13.19;82.13;94654.59;4182920;28;21178;-86
2023/11/05 08:38:52;;;;;;;1.60;0.80;;;;;;;13.18;81.24;94675.72;4194504;28;20659;-87
2023/11/05 08:40:55;;;;;;;3.30;0.70;;;;;;;13.19;82.93;94680.75;4186986;28;20622;-86
2023/11/05 08:42:57;;;;;;;1.40;0.60;;;;;;;13.15;81.56;94682.16;4178205;28;21015;-86
2023/11/05 08:45:02;;;;;;;1.20;0.50;;;;;;;13.16;81.23;94693.44;4191827;28;20722;-84
2023/11/05 08:47:05;;;;;;;1.30;0.37;;;;;;;13.15;81.80;94700.47;4180044;28;20774;-86
2023/11/05 08:49:10;;;;;;;1.93;0.60;;;;;;;13.15;82.59;94697.84;4197431;28;20628;-86
2023/11/05 08:51:13;;;;;;;1.03;0.40;;;;;;;13.18;82.05;94707.13;4173103;28;20730;-86
2023/11/05 08:53:17;;;;;;;1.00;0.50;;;;;;;13.20;82.47;94729.47;4210214;28;20722;-86
2023/11/05 08:55:28;;;;;;;2.03;0.57;;;;;;;13.29;82.10;94718.59;4209867;28;20614;-85
2023/11/05 08:57:31;;;;;;;1.20;0.43;;;;;;;13.26;81.73;94728.63;4211605;28;20650;-86
2023/11/05 08:59:34;;;;;;;1.20;0.43;;;;;;;13.30;82.20;94735.88;4214707;28;20664;-87
2023/11/05 09:01:39;;;;;;;1.57;1.27;;;;;;;13.30;82.45;94737.69;4192829;28;20627;-86
2023/11/05 09:03:42;;;;;;;0.87;0.43;;;;;;;13.36;82.22;94736.88;4201555;28;20682;-86
2023/11/05 09:05:47;;;;;;;0.80;0.30;;;;;;;13.41;81.65;94737.06;4198159;28;20631;-86
2023/11/05 09:07:52;;;;;;;4.17;0.40;;;;;;;13.38;82.19;94745.34;4213600;28;20633;-85
2023/11/05 09:09:55;;;;;;;0.90;0.40;;;;;;;13.38;82.06;94750.56;4189524;28;20635;-85
2023/11/05 09:11:58;;;;;;;1.27;0.50;;;;;;;13.49;82.28;94747.34;4193321;28;20676;-85
2023/11/05 09:14:01;;;;;;;1.00;0.40;;;;;;;13.49;82.59;94757.84;4191181;28;20656;-86
2023/11/05 09:16:06;;;;;;;2.13;0.53;;;;;;;13.54;82.79;94760.63;4192531;28;20650;-86
2023/11/05 09:18:11;;;;;;;0.90;0.40;;;;;;;13.53;82.43;94774.72;4194672;28;20627;-86
2023/11/05 09:20:15;;;;;;;0.90;0.33;;;;;;;13.50;81.40;94780.38;4195788;28;20628;-85
2023/11/05 09:22:20;;;;;;;0.80;0.30;;;;;;;13.59;81.61;94784.38;4195762;28;20624;-85
2023/11/05 09:24:27;;;;;;;0.93;0.50;;;;;;;13.62;82.45;94786.59;4196881;28;20626;-85
2023/11/05 09:26:31;;;;;;;1.40;0.40;;;;;;;13.59;83.27;94790.44;4211796;28;21244;-86
2023/11/05 09:28:38;;;;;;;1.10;0.40;;;;;;;13.63;83.42;94803.94;4177492;28;20654;-86
2023/11/05 09:30:42;;;;;;;2.23;0.70;;;;;;;13.52;82.60;94807.97;4194429;28;21141;-86
2023/11/05 09:32:44;;;;;;;1.63;0.73;;;;;;;13.54;83.03;94810.38;4181951;28;20624;-85
2023/11/05 09:34:49;;;;;;;2.97;0.57;;;;;;;13.62;82.83;94812.78;4191191;28;20634;-86
2023/11/05 09:36:53;;;;;;;1.10;0.43;;;;;;;13.64;81.21;94811.59;4179868;28;20639;-86
2023/11/05 09:38:56;;;;;;;1.37;0.50;;;;;;;13.58;81.96;94804.53;4177096;28;20636;-85
2023/11/05 09:41:00;;;;;;;1.90;0.50;;;;;;;13.57;83.65;94823.06;4177991;28;20617;-86
2023/11/05 09:43:05;;;;;;;1.00;0.40;;;;;;;13.53;83.19;94811.38;4209432;28;20621;-85